sensor_id;sensor_type;location;lat;lon;timestamp;pressure;altitude;pressure_sealevel;temperature;humidity
72285;BME280;60220;53.552;10.092;2022-07-06T00:01:36;101937.50;;;17.55;59.25
72285;BME280;60220;53.552;10.092;2022-07-06T00:04:04;101932.91;;;17.63;58.81
72285;BME280;60220;53.552;10.092;2022-07-06T00:06:32;101938.25;;;17.62;58.50
72285;BME280;60220;53.552;10.092;2022-07-06T00:08:58;101941.72;;;17.66;58.47
72285;BME280;60220;53.552;10.092;2022-07-06T00:11:24;101946.56;;;17.85;57.85
72285;BME280;60220;53.552;10.092;2022-07-06T00:13:50;101953.56;;;17.49;58.92
72285;BME280;60220;53.552;10.092;2022-07-06T00:16:15;101957.78;;;17.59;58.75
72285;BME280;60220;53.552;10.092;2022-07-06T00:18:44;101955.72;;;17.32;59.09
72285;BME280;60220;53.552;10.092;2022-07-06T00:21:10;101945.81;;;17.79;58.04
72285;BME280;60220;53.552;10.092;2022-07-06T00:23:40;101958.50;;;17.68;58.12
72285;BME280;60220;53.552;10.092;2022-07-06T00:26:06;101947.72;;;17.74;58.58
72285;BME280;60220;53.552;10.092;2022-07-06T00:28:31;101947.22;;;17.95;56.96
72285;BME280;60220;53.552;10.092;2022-07-06T00:30:59;101946.28;;;17.59;59.02
72285;BME280;60220;53.552;10.092;2022-07-06T00:33:24;101950.41;;;18.09;57.80
72285;BME280;60220;53.552;10.092;2022-07-06T00:35:50;101950.66;;;17.63;59.17
72285;BME280;60220;53.552;10.092;2022-07-06T00:38:20;101946.41;;;17.53;59.56
72285;BME280;60220;53.552;10.092;2022-07-06T00:40:45;101940.78;;;17.27;60.57
72285;BME280;60220;53.552;10.092;2022-07-06T00:43:16;101945.81;;;17.79;59.25
72285;BME280;60220;53.552;10.092;2022-07-06T00:45:45;101948.41;;;17.02;61.58
72285;BME280;60220;53.552;10.092;2022-07-06T00:48:11;101941.16;;;17.88;58.71
72285;BME280;60220;53.552;10.092;2022-07-06T00:50:37;101951.28;;;16.90;61.51
72285;BME280;60220;53.552;10.092;2022-07-06T00:53:05;101944.28;;;17.29;60.93
72285;BME280;60220;53.552;10.092;2022-07-06T00:55:34;101950.84;;;17.11;59.97
72285;BME280;60220;53.552;10.092;2022-07-06T00:58:04;101946.84;;;17.33;59.75
72285;BME280;60220;53.552;10.092;2022-07-06T01:00:30;101949.22;;;17.04;61.09
72285;BME280;60220;53.552;10.092;2022-07-06T01:02:59;101949.75;;;17.21;60.57
72285;BME280;60220;53.552;10.092;2022-07-06T01:05:30;101959.00;;;17.02;61.12
72285;BME280;60220;53.552;10.092;2022-07-06T01:07:55;101955.28;;;17.10;61.43
72285;BME280;60220;53.552;10.092;2022-07-06T01:10:26;101947.31;;;17.12;60.60
72285;BME280;60220;53.552;10.092;2022-07-06T01:12:56;101954.97;;;17.26;60.30
72285;BME280;60220;53.552;10.092;2022-07-06T01:15:24;101951.31;;;17.71;57.98
72285;BME280;60220;53.552;10.092;2022-07-06T01:17:53;101957.25;;;17.01;60.07
72285;BME280;60220;53.552;10.092;2022-07-06T01:20:20;101945.88;;;16.96;60.90
72285;BME280;60220;53.552;10.092;2022-07-06T01:22:50;101948.75;;;17.28;60.13
72285;BME280;60220;53.552;10.092;2022-07-06T01:25:16;101942.38;;;17.75;58.04
72285;BME280;60220;53.552;10.092;2022-07-06T01:27:43;101942.41;;;17.74;57.93
72285;BME280;60220;53.552;10.092;2022-07-06T01:30:15;101942.00;;;17.90;57.83
72285;BME280;60220;53.552;10.092;2022-07-06T01:32:42;101944.47;;;16.76;61.24
72285;BME280;60220;53.552;10.092;2022-07-06T01:35:10;101942.91;;;17.11;60.12
72285;BME280;60220;53.552;10.092;2022-07-06T01:37:36;101939.72;;;17.35;59.70
72285;BME280;60220;53.552;10.092;2022-07-06T01:40:04;101934.50;;;17.72;58.78
72285;BME280;60220;53.552;10.092;2022-07-06T01:42:33;101940.34;;;17.48;60.52
72285;BME280;60220;53.552;10.092;2022-07-06T01:44:59;101935.91;;;17.07;60.62
72285;BME280;60220;53.552;10.092;2022-07-06T01:47:24;101943.50;;;17.23;60.89
72285;BME280;60220;53.552;10.092;2022-07-06T01:49:50;101942.53;;;16.85;61.44
72285;BME280;60220;53.552;10.092;2022-07-06T01:52:15;101931.50;;;16.63;62.42
72285;BME280;60220;53.552;10.092;2022-07-06T01:54:41;101928.84;;;17.07;60.75
72285;BME280;60220;53.552;10.092;2022-07-06T01:57:06;101926.00;;;17.15;59.75
72285;BME280;60220;53.552;10.092;2022-07-06T01:59:32;101931.41;;;17.50;58.95
72285;BME280;60220;53.552;10.092;2022-07-06T02:04:26;101932.59;;;17.37;59.15
72285;BME280;60220;53.552;10.092;2022-07-06T02:06:53;101936.38;;;17.27;58.94
72285;BME280;60220;53.552;10.092;2022-07-06T02:09:18;101938.91;;;16.89;60.18
72285;BME280;60220;53.552;10.092;2022-07-06T02:11:44;101931.41;;;17.10;59.75
72285;BME280;60220;53.552;10.092;2022-07-06T02:14:12;101941.38;;;16.99;61.05
72285;BME280;60220;53.552;10.092;2022-07-06T02:16:37;101934.34;;;16.97;59.88
72285;BME280;60220;53.552;10.092;2022-07-06T02:19:03;101936.63;;;17.15;59.55
72285;BME280;60220;53.552;10.092;2022-07-06T02:21:30;101931.38;;;17.12;59.30
72285;BME280;60220;53.552;10.092;2022-07-06T02:23:58;101947.19;;;17.18;59.03
72285;BME280;60220;53.552;10.092;2022-07-06T02:26:24;101939.63;;;16.98;59.42
72285;BME280;60220;53.552;10.092;2022-07-06T02:28:51;101945.09;;;16.91;60.05
72285;BME280;60220;53.552;10.092;2022-07-06T02:31:17;101944.56;;;16.73;60.18
72285;BME280;60220;53.552;10.092;2022-07-06T02:33:42;101939.09;;;16.81;59.92
72285;BME280;60220;53.552;10.092;2022-07-06T02:36:10;101944.47;;;16.76;59.52
72285;BME280;60220;53.552;10.092;2022-07-06T02:38:35;101942.38;;;16.45;61.08
72285;BME280;60220;53.552;10.092;2022-07-06T02:41:05;101939.16;;;16.78;60.00
72285;BME280;60220;53.552;10.092;2022-07-06T02:43:30;101936.00;;;16.56;60.95
72285;BME280;60220;53.552;10.092;2022-07-06T02:45:56;101943.78;;;16.68;61.03
72285;BME280;60220;53.552;10.092;2022-07-06T02:48:26;101945.03;;;16.46;61.10
72285;BME280;60220;53.552;10.092;2022-07-06T02:50:54;101942.09;;;16.63;61.36
72285;BME280;60220;53.552;10.092;2022-07-06T02:53:19;101938.81;;;15.97;63.08
72285;BME280;60220;53.552;10.092;2022-07-06T02:55:45;101932.50;;;16.54;62.60
72285;BME280;60220;53.552;10.092;2022-07-06T02:58:10;101939.38;;;16.15;63.65
72285;BME280;60220;53.552;10.092;2022-07-06T03:00:36;101940.44;;;16.54;62.90
72285;BME280;60220;53.552;10.092;2022-07-06T03:03:01;101936.19;;;16.47;63.34
72285;BME280;60220;53.552;10.092;2022-07-06T03:05:29;101936.56;;;16.26;62.71
72285;BME280;60220;53.552;10.092;2022-07-06T03:07:54;101934.88;;;16.71;61.04
72285;BME280;60220;53.552;10.092;2022-07-06T03:10:20;101936.56;;;16.26;63.21
72285;BME280;60220;53.552;10.092;2022-07-06T03:12:45;101938.75;;;16.98;60.76
72285;BME280;60220;53.552;10.092;2022-07-06T03:15:11;101941.78;;;16.29;63.51
72285;BME280;60220;53.552;10.092;2022-07-06T03:17:39;101940.06;;;17.18;60.62
72285;BME280;60220;53.552;10.092;2022-07-06T03:20:07;101944.06;;;16.98;60.85
72285;BME280;60220;53.552;10.092;2022-07-06T03:22:35;101947.63;;;16.97;60.42
72285;BME280;60220;53.552;10.092;2022-07-06T03:25:00;101937.72;;;16.60;61.92
72285;BME280;60220;53.552;10.092;2022-07-06T03:27:26;101940.66;;;16.44;61.76
72285;BME280;60220;53.552;10.092;2022-07-06T03:29:51;101938.50;;;16.65;60.54
72285;BME280;60220;53.552;10.092;2022-07-06T03:32:16;101936.69;;;17.12;59.59
72285;BME280;60220;53.552;10.092;2022-07-06T03:34:42;101941.03;;;17.16;59.54
72285;BME280;60220;53.552;10.092;2022-07-06T03:37:07;101947.53;;;17.83;57.66
72285;BME280;60220;53.552;10.092;2022-07-06T03:39:33;101945.03;;;17.34;59.10
72285;BME280;60220;53.552;10.092;2022-07-06T03:41:59;101949.41;;;17.78;57.97
72285;BME280;60220;53.552;10.092;2022-07-06T03:44:27;101951.84;;;17.07;60.80
72285;BME280;60220;53.552;10.092;2022-07-06T03:46:52;101937.06;;;16.94;61.35
72285;BME280;60220;53.552;10.092;2022-07-06T03:49:25;101937.38;;;15.77;65.28
72285;BME280;60220;53.552;10.092;2022-07-06T03:51:55;101947.66;;;16.94;62.75
72285;BME280;60220;53.552;10.092;2022-07-06T03:54:20;101944.03;;;16.52;64.49
72285;BME280;60220;53.552;10.092;2022-07-06T03:56:49;101945.09;;;16.43;64.30
72285;BME280;60220;53.552;10.092;2022-07-06T03:59:16;101948.81;;;16.33;64.42
72285;BME280;60220;53.552;10.092;2022-07-06T04:01:44;101950.47;;;16.88;63.34
72285;BME280;60220;53.552;10.092;2022-07-06T04:04:09;101949.19;;;17.07;62.00
72285;BME280;60220;53.552;10.092;2022-07-06T04:06:35;101949.13;;;16.65;63.10
72285;BME280;60220;53.552;10.092;2022-07-06T04:09:03;101955.81;;;16.85;62.88
72285;BME280;60220;53.552;10.092;2022-07-06T04:11:28;101961.00;;;16.43;62.55
72285;BME280;60220;53.552;10.092;2022-07-06T04:13:54;101962.31;;;15.61;65.17
72285;BME280;60220;53.552;10.092;2022-07-06T04:16:24;101957.09;;;15.55;66.89
72285;BME280;60220;53.552;10.092;2022-07-06T04:18:49;101959.59;;;15.64;67.36
72285;BME280;60220;53.552;10.092;2022-07-06T04:21:15;101959.50;;;15.72;67.57
72285;BME280;60220;53.552;10.092;2022-07-06T04:23:43;101954.53;;;16.07;66.82
72285;BME280;60220;53.552;10.092;2022-07-06T04:26:08;101958.69;;;15.68;67.42
72285;BME280;60220;53.552;10.092;2022-07-06T04:28:34;101954.22;;;16.25;64.95
72285;BME280;60220;53.552;10.092;2022-07-06T04:31:01;101947.91;;;15.80;65.66
72285;BME280;60220;53.552;10.092;2022-07-06T04:33:27;101944.44;;;15.77;65.77
72285;BME280;60220;53.552;10.092;2022-07-06T04:35:54;101953.78;;;16.51;63.25
72285;BME280;60220;53.552;10.092;2022-07-06T04:38:22;101950.16;;;16.55;62.57
72285;BME280;60220;53.552;10.092;2022-07-06T04:40:49;101947.03;;;16.33;62.79
72285;BME280;60220;53.552;10.092;2022-07-06T04:43:15;101942.81;;;16.71;61.75
72285;BME280;60220;53.552;10.092;2022-07-06T04:45:40;101944.66;;;16.18;63.46
72285;BME280;60220;53.552;10.092;2022-07-06T04:48:08;101947.09;;;16.29;63.39
72285;BME280;60220;53.552;10.092;2022-07-06T04:50:34;101944.69;;;16.64;62.49
72285;BME280;60220;53.552;10.092;2022-07-06T04:52:59;101947.25;;;16.70;61.57
72285;BME280;60220;53.552;10.092;2022-07-06T04:55:25;101945.44;;;17.17;60.06
72285;BME280;60220;53.552;10.092;2022-07-06T04:57:52;101944.47;;;16.78;61.24
72285;BME280;60220;53.552;10.092;2022-07-06T05:00:21;101945.78;;;16.53;62.26
72285;BME280;60220;53.552;10.092;2022-07-06T05:02:46;101945.19;;;16.85;62.13
72285;BME280;60220;53.552;10.092;2022-07-06T05:05:14;101941.03;;;16.71;61.32
72285;BME280;60220;53.552;10.092;2022-07-06T05:07:39;101952.53;;;16.72;61.65
72285;BME280;60220;53.552;10.092;2022-07-06T05:10:08;101956.34;;;16.56;61.93
72285;BME280;60220;53.552;10.092;2022-07-06T05:12:34;101951.38;;;16.38;62.70
72285;BME280;60220;53.552;10.092;2022-07-06T05:15:02;101954.09;;;16.33;63.01
72285;BME280;60220;53.552;10.092;2022-07-06T05:17:28;101955.09;;;16.26;63.40
72285;BME280;60220;53.552;10.092;2022-07-06T05:19:55;101950.97;;;16.60;62.21
72285;BME280;60220;53.552;10.092;2022-07-06T05:22:20;101954.13;;;16.30;63.27
72285;BME280;60220;53.552;10.092;2022-07-06T05:24:49;101954.41;;;16.15;63.42
72285;BME280;60220;53.552;10.092;2022-07-06T05:27:17;101950.22;;;16.02;64.18
72285;BME280;60220;53.552;10.092;2022-07-06T05:29:42;101950.84;;;15.59;65.02
72285;BME280;60220;53.552;10.092;2022-07-06T05:32:08;101949.66;;;15.80;65.08
72285;BME280;60220;53.552;10.092;2022-07-06T05:34:35;101949.88;;;16.23;63.86
72285;BME280;60220;53.552;10.092;2022-07-06T05:37:03;101951.13;;;16.50;62.55
72285;BME280;60220;53.552;10.092;2022-07-06T05:39:28;101952.50;;;16.23;64.22
72285;BME280;60220;53.552;10.092;2022-07-06T05:41:56;101953.75;;;16.02;64.90
72285;BME280;60220;53.552;10.092;2022-07-06T05:44:24;101959.09;;;16.50;63.39
72285;BME280;60220;53.552;10.092;2022-07-06T05:46:51;101962.09;;;15.76;65.77
72285;BME280;60220;53.552;10.092;2022-07-06T05:49:37;101960.56;;;16.67;62.93
72285;BME280;60220;53.552;10.092;2022-07-06T05:52:21;101959.19;;;15.93;64.39
72285;BME280;60220;53.552;10.092;2022-07-06T05:54:46;101960.06;;;16.44;64.28
72285;BME280;60220;53.552;10.092;2022-07-06T05:57:11;101965.59;;;16.33;64.19
72285;BME280;60220;53.552;10.092;2022-07-06T05:59:37;101970.00;;;16.84;62.98
72285;BME280;60220;53.552;10.092;2022-07-06T06:02:02;101967.44;;;16.77;61.90
72285;BME280;60220;53.552;10.092;2022-07-06T06:04:30;101966.34;;;17.32;60.91
72285;BME280;60220;53.552;10.092;2022-07-06T06:06:58;101970.00;;;17.25;60.53
72285;BME280;60220;53.552;10.092;2022-07-06T06:09:24;101971.59;;;16.43;62.72
72285;BME280;60220;53.552;10.092;2022-07-06T06:11:51;101961.56;;;16.62;62.30
72285;BME280;60220;53.552;10.092;2022-07-06T06:14:17;101976.31;;;16.76;62.46
72285;BME280;60220;53.552;10.092;2022-07-06T06:16:42;101975.69;;;16.62;62.69
72285;BME280;60220;53.552;10.092;2022-07-06T06:19:10;101982.03;;;17.00;62.21
72285;BME280;60220;53.552;10.092;2022-07-06T06:21:38;101978.22;;;16.16;64.77
72285;BME280;60220;53.552;10.092;2022-07-06T06:24:03;101977.88;;;16.36;64.90
72285;BME280;60220;53.552;10.092;2022-07-06T06:26:29;101981.19;;;15.97;66.44
72285;BME280;60220;53.552;10.092;2022-07-06T06:28:54;101975.72;;;16.09;64.73
72285;BME280;60220;53.552;10.092;2022-07-06T06:31:19;101986.31;;;16.09;65.73
72285;BME280;60220;53.552;10.092;2022-07-06T06:33:45;101978.88;;;16.29;64.67
72285;BME280;60220;53.552;10.092;2022-07-06T06:36:13;101984.16;;;16.32;65.77
72285;BME280;60220;53.552;10.092;2022-07-06T06:38:41;101978.53;;;15.97;64.32
72285;BME280;60220;53.552;10.092;2022-07-06T06:41:07;101976.75;;;15.99;65.58
72285;BME280;60220;53.552;10.092;2022-07-06T06:43:32;101978.25;;;16.68;61.98
72285;BME280;60220;53.552;10.092;2022-07-06T06:46:00;101975.63;;;16.64;62.57
72285;BME280;60220;53.552;10.092;2022-07-06T06:48:25;101988.06;;;16.63;61.15
72285;BME280;60220;53.552;10.092;2022-07-06T06:50:50;101980.56;;;16.85;60.02
72285;BME280;60220;53.552;10.092;2022-07-06T06:53:16;101990.06;;;16.97;58.72
72285;BME280;60220;53.552;10.092;2022-07-06T06:55:44;101988.66;;;16.77;58.85
72285;BME280;60220;53.552;10.092;2022-07-06T06:58:09;101994.25;;;17.08;58.97
72285;BME280;60220;53.552;10.092;2022-07-06T07:00:37;101990.00;;;17.43;57.17
72285;BME280;60220;53.552;10.092;2022-07-06T07:03:02;101994.47;;;17.39;58.75
72285;BME280;60220;53.552;10.092;2022-07-06T07:05:27;101996.97;;;17.04;57.96
72285;BME280;60220;53.552;10.092;2022-07-06T07:07:53;102006.84;;;17.40;57.57
72285;BME280;60220;53.552;10.092;2022-07-06T07:10:19;102001.38;;;17.06;58.94
72285;BME280;60220;53.552;10.092;2022-07-06T07:12:46;102004.97;;;17.45;59.89
72285;BME280;60220;53.552;10.092;2022-07-06T07:15:12;102005.94;;;17.41;59.78
72285;BME280;60220;53.552;10.092;2022-07-06T07:17:39;102009.13;;;17.17;60.88
72285;BME280;60220;53.552;10.092;2022-07-06T07:20:05;102008.03;;;17.27;58.89
72285;BME280;60220;53.552;10.092;2022-07-06T07:22:34;102010.25;;;17.48;59.87
72285;BME280;60220;53.552;10.092;2022-07-06T07:25:03;102009.53;;;17.39;60.17
72285;BME280;60220;53.552;10.092;2022-07-06T07:27:31;102009.41;;;17.02;60.58
72285;BME280;60220;53.552;10.092;2022-07-06T07:29:59;102003.22;;;17.03;59.51
72285;BME280;60220;53.552;10.092;2022-07-06T07:32:27;102012.38;;;17.73;58.36
72285;BME280;60220;53.552;10.092;2022-07-06T07:34:55;102005.59;;;17.98;58.16
72285;BME280;60220;53.552;10.092;2022-07-06T07:37:20;102016.78;;;17.31;57.83
72285;BME280;60220;53.552;10.092;2022-07-06T07:39:48;102015.34;;;17.14;59.18
72285;BME280;60220;53.552;10.092;2022-07-06T07:42:13;102022.16;;;17.71;60.16
72285;BME280;60220;53.552;10.092;2022-07-06T07:44:42;102016.75;;;17.74;59.51
72285;BME280;60220;53.552;10.092;2022-07-06T07:47:08;102022.72;;;17.43;58.57
72285;BME280;60220;53.552;10.092;2022-07-06T07:49:33;102028.94;;;17.84;58.68
72285;BME280;60220;53.552;10.092;2022-07-06T07:52:01;102020.59;;;17.60;57.62
72285;BME280;60220;53.552;10.092;2022-07-06T07:54:29;102017.28;;;17.89;56.46
72285;BME280;60220;53.552;10.092;2022-07-06T07:56:54;102014.09;;;17.74;56.20
72285;BME280;60220;53.552;10.092;2022-07-06T07:59:20;102016.50;;;17.86;56.54
72285;BME280;60220;53.552;10.092;2022-07-06T08:01:45;102015.47;;;18.28;55.59
72285;BME280;60220;53.552;10.092;2022-07-06T08:04:13;102011.56;;;18.08;56.16
72285;BME280;60220;53.552;10.092;2022-07-06T08:06:41;102019.56;;;18.06;55.92
72285;BME280;60220;53.552;10.092;2022-07-06T08:09:07;102028.41;;;17.25;57.07
72285;BME280;60220;53.552;10.092;2022-07-06T08:11:33;102027.81;;;17.09;54.91
72285;BME280;60220;53.552;10.092;2022-07-06T08:13:59;102022.53;;;16.62;56.55
72285;BME280;60220;53.552;10.092;2022-07-06T08:16:25;102015.44;;;17.10;55.67
72285;BME280;60220;53.552;10.092;2022-07-06T08:18:50;102025.63;;;16.87;57.38
72285;BME280;60220;53.552;10.092;2022-07-06T08:21:16;102033.66;;;17.28;58.74
72285;BME280;60220;53.552;10.092;2022-07-06T08:23:41;102019.72;;;17.60;56.10
72285;BME280;60220;53.552;10.092;2022-07-06T08:26:07;102029.91;;;17.80;56.22
72285;BME280;60220;53.552;10.092;2022-07-06T08:28:32;102014.22;;;18.08;54.81
72285;BME280;60220;53.552;10.092;2022-07-06T08:30:58;102020.06;;;17.85;55.93
72285;BME280;60220;53.552;10.092;2022-07-06T08:33:26;102019.53;;;17.26;56.40
72285;BME280;60220;53.552;10.092;2022-07-06T08:35:51;102015.06;;;17.71;56.96
72285;BME280;60220;53.552;10.092;2022-07-06T08:38:17;102026.09;;;17.51;58.24
72285;BME280;60220;53.552;10.092;2022-07-06T08:40:43;102025.44;;;16.96;58.46
72285;BME280;60220;53.552;10.092;2022-07-06T08:43:10;102026.63;;;16.26;61.07
72285;BME280;60220;53.552;10.092;2022-07-06T08:45:40;102037.91;;;15.83;63.41
72285;BME280;60220;53.552;10.092;2022-07-06T08:48:06;102031.81;;;15.75;64.23
72285;BME280;60220;53.552;10.092;2022-07-06T08:50:33;102034.81;;;16.11;62.96
72285;BME280;60220;53.552;10.092;2022-07-06T08:52:59;102025.13;;;16.10;62.56
72285;BME280;60220;53.552;10.092;2022-07-06T08:55:25;102025.03;;;16.17;63.09
72285;BME280;60220;53.552;10.092;2022-07-06T08:57:56;102023.09;;;16.27;62.59
72285;BME280;60220;53.552;10.092;2022-07-06T09:00:26;102027.50;;;16.28;61.42
72285;BME280;60220;53.552;10.092;2022-07-06T09:02:51;102034.66;;;16.76;61.03
72285;BME280;60220;53.552;10.092;2022-07-06T09:05:22;102033.47;;;16.93;59.69
72285;BME280;60220;53.552;10.092;2022-07-06T09:07:52;102037.41;;;17.18;60.53
72285;BME280;60220;53.552;10.092;2022-07-06T09:10:20;102041.91;;;16.65;60.72
72285;BME280;60220;53.552;10.092;2022-07-06T09:12:48;102040.34;;;16.52;61.31
72285;BME280;60220;53.552;10.092;2022-07-06T09:15:14;102039.09;;;16.74;61.35
72285;BME280;60220;53.552;10.092;2022-07-06T09:17:43;102041.25;;;16.50;61.33
72285;BME280;60220;53.552;10.092;2022-07-06T09:20:12;102046.22;;;16.72;61.12
72285;BME280;60220;53.552;10.092;2022-07-06T09:22:38;102044.63;;;17.10;60.45
72285;BME280;60220;53.552;10.092;2022-07-06T09:25:10;102056.75;;;17.68;59.40
72285;BME280;60220;53.552;10.092;2022-07-06T09:27:40;102048.59;;;17.77;58.72
72285;BME280;60220;53.552;10.092;2022-07-06T09:30:07;102059.09;;;17.83;59.36
72285;BME280;60220;53.552;10.092;2022-07-06T09:32:44;102058.66;;;18.01;56.02
72285;BME280;60220;53.552;10.092;2022-07-06T09:35:30;102057.31;;;17.39;56.26
72285;BME280;60220;53.552;10.092;2022-07-06T09:40:35;102056.28;;;17.03;56.23
72285;BME280;60220;53.552;10.092;2022-07-06T09:45:38;102054.81;;;17.31;60.63
72285;BME280;60220;53.552;10.092;2022-07-06T09:48:14;102058.16;;;17.41;60.13
72285;BME280;60220;53.552;10.092;2022-07-06T09:50:46;102058.31;;;17.78;57.10
72285;BME280;60220;53.552;10.092;2022-07-06T09:53:13;102052.50;;;17.59;57.20
72285;BME280;60220;53.552;10.092;2022-07-06T09:55:44;102051.13;;;17.83;57.67
72285;BME280;60220;53.552;10.092;2022-07-06T09:58:14;102046.53;;;18.28;56.54
72285;BME280;60220;53.552;10.092;2022-07-06T10:00:40;102050.06;;;18.64;56.04
72285;BME280;60220;53.552;10.092;2022-07-06T10:03:08;102048.63;;;18.84;55.94
72285;BME280;60220;53.552;10.092;2022-07-06T10:05:43;102046.00;;;18.12;57.81
72285;BME280;60220;53.552;10.092;2022-07-06T10:08:14;102048.69;;;18.47;56.63
72285;BME280;60220;53.552;10.092;2022-07-06T10:10:41;102045.09;;;18.48;55.48
72285;BME280;60220;53.552;10.092;2022-07-06T10:13:08;102045.59;;;18.98;55.39
72285;BME280;60220;53.552;10.092;2022-07-06T10:15:37;102033.03;;;19.03;52.73
72285;BME280;60220;53.552;10.092;2022-07-06T10:18:09;102036.75;;;19.28;52.52
72285;BME280;60220;53.552;10.092;2022-07-06T10:20:38;102039.50;;;18.95;53.51
72285;BME280;60220;53.552;10.092;2022-07-06T10:23:08;102035.28;;;18.86;54.58
72285;BME280;60220;53.552;10.092;2022-07-06T10:25:34;102035.91;;;18.96;52.31
72285;BME280;60220;53.552;10.092;2022-07-06T10:28:05;102028.31;;;18.46;53.12
72285;BME280;60220;53.552;10.092;2022-07-06T10:30:40;102039.63;;;17.81;55.55
72285;BME280;60220;53.552;10.092;2022-07-06T10:33:07;102046.50;;;17.91;54.36
72285;BME280;60220;53.552;10.092;2022-07-06T10:35:39;102043.94;;;17.86;55.16
72285;BME280;60220;53.552;10.092;2022-07-06T10:38:07;102057.34;;;16.93;57.84
72285;BME280;60220;53.552;10.092;2022-07-06T10:40:34;102064.53;;;16.85;58.82
72285;BME280;60220;53.552;10.092;2022-07-06T10:43:19;102064.34;;;16.97;58.12
72285;BME280;60220;53.552;10.092;2022-07-06T10:50:53;102070.72;;;16.87;57.75
72285;BME280;60220;53.552;10.092;2022-07-06T10:53:27;102061.81;;;16.37;60.35
72285;BME280;60220;53.552;10.092;2022-07-06T10:55:56;102055.31;;;16.55;59.26
72285;BME280;60220;53.552;10.092;2022-07-06T10:58:48;102056.28;;;16.49;59.96
72285;BME280;60220;53.552;10.092;2022-07-06T11:01:19;102053.38;;;16.66;60.64
72285;BME280;60220;53.552;10.092;2022-07-06T11:04:08;102055.16;;;16.65;59.69
72285;BME280;60220;53.552;10.092;2022-07-06T11:06:38;102050.72;;;16.67;59.92
72285;BME280;60220;53.552;10.092;2022-07-06T11:09:08;102047.19;;;16.68;60.36
72285;BME280;60220;53.552;10.092;2022-07-06T11:11:39;102054.91;;;15.64;62.62
72285;BME280;60220;53.552;10.092;2022-07-06T11:14:13;102043.41;;;16.28;61.18
72285;BME280;60220;53.552;10.092;2022-07-06T11:19:21;102056.53;;;16.34;61.98
72285;BME280;60220;53.552;10.092;2022-07-06T11:24:29;102056.91;;;16.68;63.14
72285;BME280;60220;53.552;10.092;2022-07-06T11:27:01;102052.97;;;16.89;62.49
72285;BME280;60220;53.552;10.092;2022-07-06T11:29:28;102053.19;;;16.23;62.97
72285;BME280;60220;53.552;10.092;2022-07-06T11:31:56;102047.63;;;16.92;62.15
72285;BME280;60220;53.552;10.092;2022-07-06T11:34:30;102041.25;;;17.02;60.86
72285;BME280;60220;53.552;10.092;2022-07-06T11:36:57;102039.34;;;16.61;64.32
72285;BME280;60220;53.552;10.092;2022-07-06T11:39:26;102033.16;;;16.59;62.59
72285;BME280;60220;53.552;10.092;2022-07-06T11:41:54;102040.25;;;17.50;58.65
72285;BME280;60220;53.552;10.092;2022-07-06T11:44:20;102031.91;;;17.27;59.88
72285;BME280;60220;53.552;10.092;2022-07-06T11:46:45;102022.25;;;18.41;57.67
72285;BME280;60220;53.552;10.092;2022-07-06T11:49:13;102018.13;;;18.28;56.66
72285;BME280;60220;53.552;10.092;2022-07-06T11:51:44;102010.75;;;18.04;58.25
72285;BME280;60220;53.552;10.092;2022-07-06T11:54:12;102020.41;;;18.43;57.80
72285;BME280;60220;53.552;10.092;2022-07-06T11:57:00;102023.28;;;18.71;57.16
72285;BME280;60220;53.552;10.092;2022-07-06T11:59:33;102020.41;;;17.70;56.94
72285;BME280;60220;53.552;10.092;2022-07-06T12:02:07;102023.22;;;18.02;56.58
72285;BME280;60220;53.552;10.092;2022-07-06T12:04:38;102021.16;;;17.75;56.47
72285;BME280;60220;53.552;10.092;2022-07-06T12:07:09;102005.38;;;18.07;55.73
72285;BME280;60220;53.552;10.092;2022-07-06T12:09:38;102012.91;;;18.24;55.98
72285;BME280;60220;53.552;10.092;2022-07-06T12:12:05;102006.94;;;18.51;54.84
72285;BME280;60220;53.552;10.092;2022-07-06T12:14:32;102002.88;;;18.72;53.90
72285;BME280;60220;53.552;10.092;2022-07-06T12:17:15;102003.06;;;18.64;53.39
72285;BME280;60220;53.552;10.092;2022-07-06T12:19:43;101995.53;;;19.12;53.64
72285;BME280;60220;53.552;10.092;2022-07-06T12:22:09;101992.84;;;19.43;51.80
72285;BME280;60220;53.552;10.092;2022-07-06T12:24:42;101992.09;;;18.42;51.89
72285;BME280;60220;53.552;10.092;2022-07-06T12:29:45;101983.63;;;18.93;52.63
72285;BME280;60220;53.552;10.092;2022-07-06T12:32:18;101988.81;;;18.99;51.09
72285;BME280;60220;53.552;10.092;2022-07-06T12:34:47;101984.78;;;19.15;52.27
72285;BME280;60220;53.552;10.092;2022-07-06T12:37:32;101990.31;;;18.77;52.07
72285;BME280;60220;53.552;10.092;2022-07-06T12:39:57;101979.28;;;18.90;47.02
72285;BME280;60220;53.552;10.092;2022-07-06T12:42:23;101974.75;;;19.56;45.54
72285;BME280;60220;53.552;10.092;2022-07-06T12:44:50;101977.38;;;18.96;46.85
72285;BME280;60220;53.552;10.092;2022-07-06T12:47:21;101982.88;;;19.20;47.49
72285;BME280;60220;53.552;10.092;2022-07-06T12:50:03;101978.19;;;19.28;47.96
72285;BME280;60220;53.552;10.092;2022-07-06T12:52:29;101985.47;;;18.92;48.37
72285;BME280;60220;53.552;10.092;2022-07-06T12:54:55;101976.06;;;18.45;49.53
72285;BME280;60220;53.552;10.092;2022-07-06T12:57:22;101980.41;;;19.13;49.34
72285;BME280;60220;53.552;10.092;2022-07-06T13:02:32;101962.81;;;19.38;48.74
72285;BME280;60220;53.552;10.092;2022-07-06T13:05:04;101967.03;;;19.47;48.96
72285;BME280;60220;53.552;10.092;2022-07-06T13:07:31;101960.88;;;19.45;48.51